sensor_id;sensor_type;location;lat;lon;timestamp;P1;durP1;ratioP1;P2;durP2;ratioP2
23280;SDS011;11809;56.390;-3.266;2023-09-19T00:00:44;1.63;;;0.60;;
23280;SDS011;11809;56.390;-3.266;2023-09-19T00:03:14;0.60;;;0.40;;
23280;SDS011;11809;56.390;-3.266;2023-09-19T00:05:41;0.70;;;0.40;;
23280;SDS011;11809;56.390;-3.266;2023-09-19T00:08:12;0.77;;;0.30;;
23280;SDS011;11809;56.390;-3.266;2023-09-19T00:10:42;1.20;;;0.50;;
23280;SDS011;11809;56.390;-3.266;2023-09-19T00:13:10;1.23;;;0.50;;
23280;SDS011;11809;56.390;-3.266;2023-09-19T00:15:43;1.02;;;0.30;;
23280;SDS011;11809;56.390;-3.266;2023-09-19T00:18:22;0.50;;;0.30;;
23280;SDS011;11809;56.390;-3.266;2023-09-19T00:20:50;1.23;;;0.40;;
23280;SDS011;11809;56.390;-3.266;2023-09-19T00:23:19;1.40;;;0.52;;
23280;SDS011;11809;56.390;-3.266;2023-09-19T00:25:46;0.93;;;0.40;;
23280;SDS011;11809;56.390;-3.266;2023-09-19T00:28:14;1.13;;;0.30;;
23280;SDS011;11809;56.390;-3.266;2023-09-19T00:30:42;1.40;;;0.25;;
23280;SDS011;11809;56.390;-3.266;2023-09-19T00:33:10;0.68;;;0.30;;
23280;SDS011;11809;56.390;-3.266;2023-09-19T00:35:49;1.20;;;0.38;;
23280;SDS011;11809;56.390;-3.266;2023-09-19T00:38:21;0.68;;;0.32;;
23280;SDS011;11809;56.390;-3.266;2023-09-19T00:40:50;2.42;;;0.40;;
23280;SDS011;11809;56.390;-3.266;2023-09-19T00:43:20;1.50;;;0.40;;
23280;SDS011;11809;56.390;-3.266;2023-09-19T00:45:48;6.65;;;0.60;;
23280;SDS011;11809;56.390;-3.266;2023-09-19T00:48:18;5.07;;;0.60;;
23280;SDS011;11809;56.390;-3.266;2023-09-19T00:50:48;6.00;;;0.40;;
23280;SDS011;11809;56.390;-3.266;2023-09-19T00:53:17;5.35;;;0.50;;
23280;SDS011;11809;56.390;-3.266;2023-09-19T00:55:47;2.70;;;0.60;;
23280;SDS011;11809;56.390;-3.266;2023-09-19T00:58:19;5.75;;;0.50;;
23280;SDS011;11809;56.390;-3.266;2023-09-19T01:03:17;6.85;;;0.68;;
23280;SDS011;11809;56.390;-3.266;2023-09-19T01:05:45;6.10;;;0.63;;
23280;SDS011;11809;56.390;-3.266;2023-09-19T01:08:12;5.35;;;0.60;;
23280;SDS011;11809;56.390;-3.266;2023-09-19T01:10:41;2.97;;;0.85;;
23280;SDS011;11809;56.390;-3.266;2023-09-19T01:13:21;1.80;;;0.25;;
23280;SDS011;11809;56.390;-3.266;2023-09-19T01:16:20;3.00;;;0.60;;
23280;SDS011;11809;56.390;-3.266;2023-09-19T01:27:58;2.42;;;0.40;;
23280;SDS011;11809;56.390;-3.266;2023-09-19T01:30:39;2.97;;;0.60;;
23280;SDS011;11809;56.390;-3.266;2023-09-19T01:33:09;2.83;;;0.50;;
23280;SDS011;11809;56.390;-3.266;2023-09-19T01:35:41;1.20;;;0.50;;
23280;SDS011;11809;56.390;-3.266;2023-09-19T01:38:08;4.90;;;0.98;;
23280;SDS011;11809;56.390;-3.266;2023-09-19T01:40:41;3.28;;;0.82;;
23280;SDS011;11809;56.390;-3.266;2023-09-19T01:43:15;4.13;;;0.70;;
23280;SDS011;11809;56.390;-3.266;2023-09-19T01:51:01;2.78;;;0.60;;
23280;SDS011;11809;56.390;-3.266;2023-09-19T01:59:24;2.78;;;0.60;;
23280;SDS011;11809;56.390;-3.266;2023-09-19T02:01:54;2.45;;;0.52;;
23280;SDS011;11809;56.390;-3.266;2023-09-19T02:04:23;2.10;;;0.43;;
23280;SDS011;11809;56.390;-3.266;2023-09-19T02:06:50;6.07;;;0.60;;
23280;SDS011;11809;56.390;-3.266;2023-09-19T02:09:18;2.58;;;0.60;;
23280;SDS011;11809;56.390;-3.266;2023-09-19T02:11:45;2.10;;;0.50;;
23280;SDS011;11809;56.390;-3.266;2023-09-19T02:14:13;0.98;;;0.28;;
23280;SDS011;11809;56.390;-3.266;2023-09-19T02:16:40;3.42;;;0.50;;
23280;SDS011;11809;56.390;-3.266;2023-09-19T02:19:08;1.75;;;0.57;;
23280;SDS011;11809;56.390;-3.266;2023-09-19T02:21:35;2.75;;;0.47;;
23280;SDS011;11809;56.390;-3.266;2023-09-19T02:24:03;2.45;;;0.60;;
23280;SDS011;11809;56.390;-3.266;2023-09-19T02:26:30;2.60;;;0.50;;
23280;SDS011;11809;56.390;-3.266;2023-09-19T02:28:57;1.52;;;0.60;;
23280;SDS011;11809;56.390;-3.266;2023-09-19T02:31:26;2.70;;;0.60;;
23280;SDS011;11809;56.390;-3.266;2023-09-19T02:33:56;1.15;;;0.40;;
23280;SDS011;11809;56.390;-3.266;2023-09-19T02:36:23;1.15;;;0.55;;
23280;SDS011;11809;56.390;-3.266;2023-09-19T02:38:50;0.98;;;0.45;;
23280;SDS011;11809;56.390;-3.266;2023-09-19T02:41:17;5.82;;;0.50;;
23280;SDS011;11809;56.390;-3.266;2023-09-19T02:43:44;0.85;;;0.40;;
23280;SDS011;11809;56.390;-3.266;2023-09-19T02:46:10;2.55;;;0.60;;
23280;SDS011;11809;56.390;-3.266;2023-09-19T02:48:38;1.27;;;0.50;;
23280;SDS011;11809;56.390;-3.266;2023-09-19T02:51:05;2.35;;;0.60;;
23280;SDS011;11809;56.390;-3.266;2023-09-19T02:53:32;3.38;;;0.65;;
23280;SDS011;11809;56.390;-3.266;2023-09-19T02:55:59;1.98;;;0.60;;
23280;SDS011;11809;56.390;-3.266;2023-09-19T02:58:27;1.38;;;0.47;;
23280;SDS011;11809;56.390;-3.266;2023-09-19T03:00:54;2.67;;;0.70;;
23280;SDS011;11809;56.390;-3.266;2023-09-19T03:03:21;2.88;;;0.60;;
23280;SDS011;11809;56.390;-3.266;2023-09-19T03:05:49;1.83;;;0.55;;
23280;SDS011;11809;56.390;-3.266;2023-09-19T03:08:20;2.53;;;0.70;;
23280;SDS011;11809;56.390;-3.266;2023-09-19T03:10:48;1.15;;;0.50;;
23280;SDS011;11809;56.390;-3.266;2023-09-19T03:13:15;1.30;;;0.60;;
23280;SDS011;11809;56.390;-3.266;2023-09-19T03:15:42;0.57;;;0.50;;
23280;SDS011;11809;56.390;-3.266;2023-09-19T03:18:17;1.63;;;0.50;;
23280;SDS011;11809;56.390;-3.266;2023-09-19T03:20:51;0.90;;;0.50;;
23280;SDS011;11809;56.390;-3.266;2023-09-19T03:23:22;0.98;;;0.50;;
23280;SDS011;11809;56.390;-3.266;2023-09-19T03:25:49;1.63;;;0.60;;
23280;SDS011;11809;56.390;-3.266;2023-09-19T03:28:17;1.20;;;0.63;;
23280;SDS011;11809;56.390;-3.266;2023-09-19T03:30:44;1.60;;;0.60;;
23280;SDS011;11809;56.390;-3.266;2023-09-19T03:33:11;1.67;;;0.50;;
23280;SDS011;11809;56.390;-3.266;2023-09-19T03:35:39;1.33;;;0.47;;
23280;SDS011;11809;56.390;-3.266;2023-09-19T03:38:06;3.00;;;0.60;;
23280;SDS011;11809;56.390;-3.266;2023-09-19T03:40:33;2.00;;;0.77;;
23280;SDS011;11809;56.390;-3.266;2023-09-19T03:43:00;1.27;;;0.73;;
23280;SDS011;11809;56.390;-3.266;2023-09-19T03:45:28;1.75;;;0.70;;
23280;SDS011;11809;56.390;-3.266;2023-09-19T03:47:55;0.93;;;0.50;;
23280;SDS011;11809;56.390;-3.266;2023-09-19T03:50:22;1.33;;;0.60;;
23280;SDS011;11809;56.390;-3.266;2023-09-19T03:52:49;1.02;;;0.68;;
23280;SDS011;11809;56.390;-3.266;2023-09-19T03:55:16;1.10;;;0.60;;
23280;SDS011;11809;56.390;-3.266;2023-09-19T03:57:47;3.92;;;0.77;;
23280;SDS011;11809;56.390;-3.266;2023-09-19T04:00:15;1.20;;;0.50;;
23280;SDS011;11809;56.390;-3.266;2023-09-19T04:02:45;3.80;;;0.75;;
23280;SDS011;11809;56.390;-3.266;2023-09-19T04:05:12;1.60;;;0.50;;
23280;SDS011;11809;56.390;-3.266;2023-09-19T04:07:39;1.25;;;0.60;;
23280;SDS011;11809;56.390;-3.266;2023-09-19T04:10:06;1.40;;;0.60;;
23280;SDS011;11809;56.390;-3.266;2023-09-19T04:12:35;5.15;;;0.80;;
23280;SDS011;11809;56.390;-3.266;2023-09-19T04:15:02;2.42;;;0.60;;
23280;SDS011;11809;56.390;-3.266;2023-09-19T04:17:30;1.42;;;0.73;;
23280;SDS011;11809;56.390;-3.266;2023-09-19T04:19:59;4.43;;;0.85;;
23280;SDS011;11809;56.390;-3.266;2023-09-19T04:22:26;3.65;;;0.80;;
23280;SDS011;11809;56.390;-3.266;2023-09-19T04:24:53;4.03;;;0.80;;
23280;SDS011;11809;56.390;-3.266;2023-09-19T04:27:20;2.22;;;0.60;;
23280;SDS011;11809;56.390;-3.266;2023-09-19T04:29:47;2.50;;;0.70;;
23280;SDS011;11809;56.390;-3.266;2023-09-19T04:32:14;3.60;;;0.70;;
23280;SDS011;11809;56.390;-3.266;2023-09-19T04:34:42;2.20;;;0.60;;
23280;SDS011;11809;56.390;-3.266;2023-09-19T04:37:09;1.30;;;0.60;;
23280;SDS011;11809;56.390;-3.266;2023-09-19T04:39:37;1.70;;;0.60;;
23280;SDS011;11809;56.390;-3.266;2023-09-19T04:42:05;1.00;;;0.68;;
23280;SDS011;11809;56.390;-3.266;2023-09-19T04:44:35;2.53;;;0.70;;
23280;SDS011;11809;56.390;-3.266;2023-09-19T04:47:04;2.53;;;0.82;;
23280;SDS011;11809;56.390;-3.266;2023-09-19T04:49:32;1.17;;;0.70;;
23280;SDS011;11809;56.390;-3.266;2023-09-19T04:51:59;1.88;;;0.60;;
23280;SDS011;11809;56.390;-3.266;2023-09-19T04:54:26;4.55;;;0.80;;
23280;SDS011;11809;56.390;-3.266;2023-09-19T04:56:53;7.75;;;0.77;;
23280;SDS011;11809;56.390;-3.266;2023-09-19T04:59:20;3.78;;;0.50;;
23280;SDS011;11809;56.390;-3.266;2023-09-19T05:01:47;3.70;;;0.82;;
23280;SDS011;11809;56.390;-3.266;2023-09-19T05:04:14;1.73;;;0.63;;
23280;SDS011;11809;56.390;-3.266;2023-09-19T05:06:41;3.38;;;0.75;;
23280;SDS011;11809;56.390;-3.266;2023-09-19T05:09:12;8.68;;;0.50;;
23280;SDS011;11809;56.390;-3.266;2023-09-19T05:11:40;281.30;;;187.95;;
23280;SDS011;11809;56.390;-3.266;2023-09-19T05:14:07;795.92;;;522.30;;
23280;SDS011;11809;56.390;-3.266;2023-09-19T05:16:33;413.65;;;263.17;;
23280;SDS011;11809;56.390;-3.266;2023-09-19T05:19:01;413.27;;;260.90;;
23280;SDS011;11809;56.390;-3.266;2023-09-19T05:21:28;372.52;;;229.02;;
23280;SDS011;11809;56.390;-3.266;2023-09-19T05:23:56;345.60;;;204.93;;
23280;SDS011;11809;56.390;-3.266;2023-09-19T05:26:23;354.30;;;204.95;;
23280;SDS011;11809;56.390;-3.266;2023-09-19T05:28:50;339.42;;;205.85;;
23280;SDS011;11809;56.390;-3.266;2023-09-19T05:31:17;310.52;;;196.55;;
23280;SDS011;11809;56.390;-3.266;2023-09-19T05:33:44;304.10;;;182.35;;
23280;SDS011;11809;56.390;-3.266;2023-09-19T05:36:11;312.13;;;185.18;;
23280;SDS011;11809;56.390;-3.266;2023-09-19T05:38:38;309.45;;;188.25;;
23280;SDS011;11809;56.390;-3.266;2023-09-19T05:41:08;275.67;;;168.07;;
23280;SDS011;11809;56.390;-3.266;2023-09-19T05:43:37;273.43;;;167.30;;
23280;SDS011;11809;56.390;-3.266;2023-09-19T05:46:05;264.67;;;161.10;;
23280;SDS011;11809;56.390;-3.266;2023-09-19T05:48:33;274.40;;;160.45;;
23280;SDS011;11809;56.390;-3.266;2023-09-19T05:51:00;255.40;;;148.90;;
23280;SDS011;11809;56.390;-3.266;2023-09-19T05:53:30;231.77;;;137.60;;
23280;SDS011;11809;56.390;-3.266;2023-09-19T05:55:57;229.85;;;133.65;;
23280;SDS011;11809;56.390;-3.266;2023-09-19T05:58:27;199.85;;;118.45;;
23280;SDS011;11809;56.390;-3.266;2023-09-19T06:00:54;196.73;;;119.35;;
23280;SDS011;11809;56.390;-3.266;2023-09-19T06:03:22;181.05;;;104.05;;
23280;SDS011;11809;56.390;-3.266;2023-09-19T06:05:49;174.18;;;98.88;;
23280;SDS011;11809;56.390;-3.266;2023-09-19T06:08:16;179.50;;;100.55;;
23280;SDS011;11809;56.390;-3.266;2023-09-19T06:10:43;194.27;;;111.90;;
23280;SDS011;11809;56.390;-3.266;2023-09-19T06:13:10;175.98;;;100.50;;
23280;SDS011;11809;56.390;-3.266;2023-09-19T06:15:37;127.25;;;71.05;;
23280;SDS011;11809;56.390;-3.266;2023-09-19T06:18:04;144.73;;;84.00;;
23280;SDS011;11809;56.390;-3.266;2023-09-19T06:20:32;134.13;;;82.35;;
23280;SDS011;11809;56.390;-3.266;2023-09-19T06:23:00;130.05;;;81.05;;
23280;SDS011;11809;56.390;-3.266;2023-09-19T06:25:28;126.40;;;77.88;;
23280;SDS011;11809;56.390;-3.266;2023-09-19T06:27:56;128.63;;;72.45;;
23280;SDS011;11809;56.390;-3.266;2023-09-19T06:30:23;90.85;;;46.97;;
23280;SDS011;11809;56.390;-3.266;2023-09-19T06:32:56;80.13;;;33.90;;
23280;SDS011;11809;56.390;-3.266;2023-09-19T06:35:27;58.15;;;32.75;;
23280;SDS011;11809;56.390;-3.266;2023-09-19T06:37:56;79.07;;;40.08;;
23280;SDS011;11809;56.390;-3.266;2023-09-19T06:40:25;74.47;;;38.55;;
23280;SDS011;11809;56.390;-3.266;2023-09-19T06:42:52;281.60;;;45.35;;
23280;SDS011;11809;56.390;-3.266;2023-09-19T06:45:20;566.47;;;60.55;;
23280;SDS011;11809;56.390;-3.266;2023-09-19T06:47:49;327.85;;;48.95;;
23280;SDS011;11809;56.390;-3.266;2023-09-19T06:50:18;303.63;;;45.85;;
23280;SDS011;11809;56.390;-3.266;2023-09-19T06:52:55;293.35;;;43.80;;
23280;SDS011;11809;56.390;-3.266;2023-09-19T06:55:24;192.38;;;38.47;;
23280;SDS011;11809;56.390;-3.266;2023-09-19T06:57:55;180.38;;;38.28;;
23280;SDS011;11809;56.390;-3.266;2023-09-19T07:00:22;157.55;;;32.85;;
23280;SDS011;11809;56.390;-3.266;2023-09-19T07:03:00;143.85;;;33.05;;
23280;SDS011;11809;56.390;-3.266;2023-09-19T07:05:32;125.57;;;31.95;;
23280;SDS011;11809;56.390;-3.266;2023-09-19T07:07:59;99.75;;;28.17;;
23280;SDS011;11809;56.390;-3.266;2023-09-19T07:10:27;119.60;;;28.70;;
23280;SDS011;11809;56.390;-3.266;2023-09-19T07:13:01;94.35;;;26.80;;
23280;SDS011;11809;56.390;-3.266;2023-09-19T07:15:32;86.53;;;24.50;;
23280;SDS011;11809;56.390;-3.266;2023-09-19T07:18:02;87.55;;;23.92;;
23280;SDS011;11809;56.390;-3.266;2023-09-19T07:20:30;81.80;;;22.42;;
23280;SDS011;11809;56.390;-3.266;2023-09-19T07:22:59;64.47;;;21.70;;
23280;SDS011;11809;56.390;-3.266;2023-09-19T07:25:27;66.55;;;20.77;;
23280;SDS011;11809;56.390;-3.266;2023-09-19T07:27:55;59.65;;;18.98;;
23280;SDS011;11809;56.390;-3.266;2023-09-19T07:30:23;55.15;;;18.40;;
23280;SDS011;11809;56.390;-3.266;2023-09-19T07:32:50;50.58;;;16.13;;
23280;SDS011;11809;56.390;-3.266;2023-09-19T07:35:18;42.42;;;15.63;;
23280;SDS011;11809;56.390;-3.266;2023-09-19T07:37:49;43.40;;;15.73;;
23280;SDS011;11809;56.390;-3.266;2023-09-19T07:40:17;43.28;;;14.82;;
23280;SDS011;11809;56.390;-3.266;2023-09-19T07:42:47;35.08;;;12.65;;
23280;SDS011;11809;56.390;-3.266;2023-09-19T07:45:15;25.85;;;8.80;;
23280;SDS011;11809;56.390;-3.266;2023-09-19T07:47:47;36.03;;;8.68;;
23280;SDS011;11809;56.390;-3.266;2023-09-19T07:50:15;43.08;;;9.85;;
23280;SDS011;11809;56.390;-3.266;2023-09-19T07:52:46;23.55;;;8.63;;
23280;SDS011;11809;56.390;-3.266;2023-09-19T07:55:13;28.73;;;8.27;;
23280;SDS011;11809;56.390;-3.266;2023-09-19T07:57:43;34.50;;;8.43;;
23280;SDS011;11809;56.390;-3.266;2023-09-19T08:00:11;33.13;;;8.02;;
23280;SDS011;11809;56.390;-3.266;2023-09-19T08:02:41;27.70;;;7.90;;
23280;SDS011;11809;56.390;-3.266;2023-09-19T08:05:11;33.80;;;8.10;;
23280;SDS011;11809;56.390;-3.266;2023-09-19T08:07:43;29.60;;;6.70;;
23280;SDS011;11809;56.390;-3.266;2023-09-19T08:10:23;28.35;;;6.45;;
23280;SDS011;11809;56.390;-3.266;2023-09-19T08:12:54;19.00;;;6.22;;
23280;SDS011;11809;56.390;-3.266;2023-09-19T08:15:24;23.73;;;6.20;;
23280;SDS011;11809;56.390;-3.266;2023-09-19T08:17:51;17.92;;;6.18;;
23280;SDS011;11809;56.390;-3.266;2023-09-19T08:20:19;15.27;;;5.60;;
23280;SDS011;11809;56.390;-3.266;2023-09-19T08:22:47;17.88;;;5.45;;
23280;SDS011;11809;56.390;-3.266;2023-09-19T08:25:18;14.55;;;5.40;;
23280;SDS011;11809;56.390;-3.266;2023-09-19T08:27:45;24.85;;;5.97;;
23280;SDS011;11809;56.390;-3.266;2023-09-19T08:30:19;21.92;;;5.32;;
23280;SDS011;11809;56.390;-3.266;2023-09-19T08:32:51;27.02;;;4.78;;
23280;SDS011;11809;56.390;-3.266;2023-09-19T08:37:10;16.25;;;4.63;;
23280;SDS011;11809;56.390;-3.266;2023-09-19T08:39:37;11.52;;;4.05;;
23280;SDS011;11809;56.390;-3.266;2023-09-19T08:42:04;13.50;;;4.20;;
23280;SDS011;11809;56.390;-3.266;2023-09-19T08:44:31;10.20;;;4.10;;
23280;SDS011;11809;56.390;-3.266;2023-09-19T08:47:50;8.70;;;3.72;;
23280;SDS011;11809;56.390;-3.266;2023-09-19T08:52:46;9.52;;;3.50;;
23280;SDS011;11809;56.390;-3.266;2023-09-19T08:55:17;8.82;;;3.80;;
23280;SDS011;11809;56.390;-3.266;2023-09-19T09:00:19;13.73;;;5.63;;
23280;SDS011;11809;56.390;-3.266;2023-09-19T09:02:49;33.73;;;19.57;;
23280;SDS011;11809;56.390;-3.266;2023-09-19T09:05:17;84.80;;;46.25;;
23280;SDS011;11809;56.390;-3.266;2023-09-19T09:07:49;206.80;;;125.05;;
23280;SDS011;11809;56.390;-3.266;2023-09-19T09:10:24;215.45;;;133.85;;
23280;SDS011;11809;56.390;-3.266;2023-09-19T09:12:52;135.38;;;83.85;;
23280;SDS011;11809;56.390;-3.266;2023-09-19T09:15:22;144.15;;;88.18;;
23280;SDS011;11809;56.390;-3.266;2023-09-19T09:17:50;136.73;;;82.60;;
23280;SDS011;11809;56.390;-3.266;2023-09-19T09:20:21;108.90;;;67.65;;
23280;SDS011;11809;56.390;-3.266;2023-09-19T09:22:52;120.28;;;71.80;;
23280;SDS011;11809;56.390;-3.266;2023-09-19T09:25:46;112.25;;;67.45;;
23280;SDS011;11809;56.390;-3.266;2023-09-19T09:28:24;100.82;;;63.63;;
23280;SDS011;11809;56.390;-3.266;2023-09-19T09:30:53;106.28;;;66.75;;
23280;SDS011;11809;56.390;-3.266;2023-09-19T09:33:35;115.28;;;73.00;;
23280;SDS011;11809;56.390;-3.266;2023-09-19T09:36:03;102.47;;;64.43;;
23280;SDS011;11809;56.390;-3.266;2023-09-19T09:43:53;119.85;;;74.10;;
23280;SDS011;11809;56.390;-3.266;2023-09-19T09:46:21;79.43;;;49.83;;
23280;SDS011;11809;56.390;-3.266;2023-09-19T09:51:41;94.53;;;58.35;;
23280;SDS011;11809;56.390;-3.266;2023-09-19T09:54:27;121.32;;;71.68;;
23280;SDS011;11809;56.390;-3.266;2023-09-19T09:57:09;91.25;;;58.22;;
23280;SDS011;11809;56.390;-3.266;2023-09-19T09:59:44;105.65;;;64.40;;
23280;SDS011;11809;56.390;-3.266;2023-09-19T10:02:17;84.90;;;52.45;;
23280;SDS011;11809;56.390;-3.266;2023-09-19T10:04:52;79.95;;;49.80;;
23280;SDS011;11809;56.390;-3.266;2023-09-19T10:07:39;84.25;;;55.40;;
23280;SDS011;11809;56.390;-3.266;2023-09-19T10:12:29;67.75;;;44.25;;
23280;SDS011;11809;56.390;-3.266;2023-09-19T10:14:56;64.95;;;40.10;;
23280;SDS011;11809;56.390;-3.266;2023-09-19T10:17:27;64.65;;;41.65;;
23280;SDS011;11809;56.390;-3.266;2023-09-19T10:19:58;59.50;;;39.15;;
23280;SDS011;11809;56.390;-3.266;2023-09-19T10:22:33;53.58;;;35.42;;
23280;SDS011;11809;56.390;-3.266;2023-09-19T10:25:02;68.68;;;38.35;;
23280;SDS011;11809;56.390;-3.266;2023-09-19T10:27:33;75.38;;;36.30;;
23280;SDS011;11809;56.390;-3.266;2023-09-19T10:30:07;53.90;;;30.30;;
23280;SDS011;11809;56.390;-3.266;2023-09-19T10:32:36;59.17;;;32.33;;
23280;SDS011;11809;56.390;-3.266;2023-09-19T10:35:08;55.75;;;27.85;;
23280;SDS011;11809;56.390;-3.266;2023-09-19T10:37:39;54.28;;;29.08;;
23280;SDS011;11809;56.390;-3.266;2023-09-19T10:42:38;32.83;;;15.68;;
23280;SDS011;11809;56.390;-3.266;2023-09-19T10:45:09;35.85;;;15.98;;
23280;SDS011;11809;56.390;-3.266;2023-09-19T10:47:40;43.88;;;19.65;;
23280;SDS011;11809;56.390;-3.266;2023-09-19T10:50:07;39.03;;;22.38;;
23280;SDS011;11809;56.390;-3.266;2023-09-19T10:52:38;42.40;;;20.08;;
23280;SDS011;11809;56.390;-3.266;2023-09-19T10:55:08;35.30;;;19.17;;
23280;SDS011;11809;56.390;-3.266;2023-09-19T10:57:44;31.48;;;17.85;;
23280;SDS011;11809;56.390;-3.266;2023-09-19T11:00:13;34.60;;;17.45;;
23280;SDS011;11809;56.390;-3.266;2023-09-19T11:05:41;26.08;;;15.20;;
23280;SDS011;11809;56.390;-3.266;2023-09-19T11:08:09;26.67;;;15.25;;
23280;SDS011;11809;56.390;-3.266;2023-09-19T11:10:48;28.63;;;14.13;;
23280;SDS011;11809;56.390;-3.266;2023-09-19T11:26:57;14.48;;;5.60;;
23280;SDS011;11809;56.390;-3.266;2023-09-19T11:29:36;9.27;;;5.10;;
23280;SDS011;11809;56.390;-3.266;2023-09-19T11:32:04;16.55;;;9.23;;
23280;SDS011;11809;56.390;-3.266;2023-09-19T11:37:15;19.00;;;9.07;;
23280;SDS011;11809;56.390;-3.266;2023-09-19T11:40:05;14.85;;;8.75;;
23280;SDS011;11809;56.390;-3.266;2023-09-19T11:48:13;19.75;;;6.55;;
23280;SDS011;11809;56.390;-3.266;2023-09-19T11:50:42;23.42;;;7.25;;
23280;SDS011;11809;56.390;-3.266;2023-09-19T11:53:12;19.75;;;6.93;;
23280;SDS011;11809;56.390;-3.266;2023-09-19T11:55:40;19.08;;;6.30;;
23280;SDS011;11809;56.390;-3.266;2023-09-19T11:58:10;14.32;;;6.30;;
23280;SDS011;11809;56.390;-3.266;2023-09-19T12:00:40;55.58;;;7.63;;
23280;SDS011;11809;56.390;-3.266;2023-09-19T12:03:10;16.33;;;5.53;;
23280;SDS011;11809;56.390;-3.266;2023-09-19T12:05:40;13.85;;;5.68;;
23280;SDS011;11809;56.390;-3.266;2023-09-19T12:08:08;12.48;;;4.95;;
23280;SDS011;11809;56.390;-3.266;2023-09-19T12:10:48;10.80;;;4.85;;
23280;SDS011;11809;56.390;-3.266;2023-09-19T12:13:19;15.73;;;4.78;;
23280;SDS011;11809;56.390;-3.266;2023-09-19T12:15:47;9.75;;;4.07;;
23280;SDS011;11809;56.390;-3.266;2023-09-19T12:18:27;11.50;;;4.55;;
23280;SDS011;11809;56.390;-3.266;2023-09-19T12:20:55;9.90;;;4.13;;
23280;SDS011;11809;56.390;-3.266;2023-09-19T12:23:22;7.68;;;4.20;;
23280;SDS011;11809;56.390;-3.266;2023-09-19T12:25:49;7.93;;;3.70;;
23280;SDS011;11809;56.390;-3.266;2023-09-19T12:28:19;10.13;;;3.60;;
23280;SDS011;11809;56.390;-3.266;2023-09-19T12:33:19;3.92;;;2.80;;
23280;SDS011;11809;56.390;-3.266;2023-09-19T12:35:47;6.05;;;2.90;;
23280;SDS011;11809;56.390;-3.266;2023-09-19T12:38:25;10.95;;;2.92;;
23280;SDS011;11809;56.390;-3.266;2023-09-19T12:40:57;7.78;;;2.70;;
23280;SDS011;11809;56.390;-3.266;2023-09-19T12:43:30;8.80;;;3.00;;
23280;SDS011;11809;56.390;-3.266;2023-09-19T12:45:59;6.47;;;2.88;;
23280;SDS011;11809;56.390;-3.266;2023-09-19T12:48:27;7.03;;;2.60;;
23280;SDS011;11809;56.390;-3.266;2023-09-19T12:53:40;4.63;;;2.50;;
23280;SDS011;11809;56.390;-3.266;2023-09-19T12:56:10;6.95;;;2.40;;
23280;SDS011;11809;56.390;-3.266;2023-09-19T12:58:56;2.75;;;2.30;;
23280;SDS011;11809;56.390;-3.266;2023-09-19T13:01:31;7.73;;;2.20;;
23280;SDS011;11809;56.390;-3.266;2023-09-19T13:06:42;12.48;;;2.40;;
23280;SDS011;11809;56.390;-3.266;2023-09-19T13:09:11;9.52;;;2.35;;
23280;SDS011;11809;56.390;-3.266;2023-09-19T13:11:40;4.20;;;2.10;;
23280;SDS011;11809;56.390;-3.266;2023-09-19T13:17:00;14.10;;;2.30;;
23280;SDS011;11809;56.390;-3.266;2023-09-19T13:19:42;13.00;;;1.90;;
23280;SDS011;11809;56.390;-3.266;2023-09-19T13:25:10;10.17;;;1.93;;
23280;SDS011;11809;56.390;-3.266;2023-09-19T13:30:12;35.03;;;2.65;;
23280;SDS011;11809;56.390;-3.266;2023-09-19T13:32:40;6.88;;;1.58;;
23280;SDS011;11809;56.390;-3.266;2023-09-19T13:35:10;11.27;;;1.48;;
23280;SDS011;11809;56.390;-3.266;2023-09-19T13:37:39;19.95;;;2.05;;
23280;SDS011;11809;56.390;-3.266;2023-09-19T13:40:14;7.95;;;1.65;;
23280;SDS011;11809;56.390;-3.266;2023-09-19T13:42:42;4.35;;;1.40;;
23280;SDS011;11809;56.390;-3.266;2023-09-19T13:45:10;4.05;;;1.70;;
23280;SDS011;11809;56.390;-3.266;2023-09-19T13:47:39;7.28;;;1.80;;
23280;SDS011;11809;56.390;-3.266;2023-09-19T13:50:07;13.15;;;1.90;;
23280;SDS011;11809;56.390;-3.266;2023-09-19T13:52:35;5.40;;;1.40;;
23280;SDS011;11809;56.390;-3.266;2023-09-19T13:55:03;4.70;;;1.38;;
23280;SDS011;11809;56.390;-3.266;2023-09-19T13:57:30;4.47;;;1.65;;
23280;SDS011;11809;56.390;-3.266;2023-09-19T14:00:00;9.52;;;1.65;;
23280;SDS011;11809;56.390;-3.266;2023-09-19T14:02:27;14.00;;;1.90;;
23280;SDS011;11809;56.390;-3.266;2023-09-19T14:04:54;16.75;;;2.03;;
23280;SDS011;11809;56.390;-3.266;2023-09-19T14:07:21;42.35;;;2.85;;
23280;SDS011;11809;56.390;-3.266;2023-09-19T14:09:49;26.50;;;2.50;;
23280;SDS011;11809;56.390;-3.266;2023-09-19T14:12:16;22.02;;;2.50;;
23280;SDS011;11809;56.390;-3.266;2023-09-19T14:14:43;29.45;;;2.72;;
23280;SDS011;11809;56.390;-3.266;2023-09-19T14:17:11;33.22;;;2.22;;
23280;SDS011;11809;56.390;-3.266;2023-09-19T14:19:40;9.65;;;1.40;;
23280;SDS011;11809;56.390;-3.266;2023-09-19T14:22:12;18.67;;;1.85;;
23280;SDS011;11809;56.390;-3.266;2023-09-19T14:24:41;24.63;;;2.00;;
23280;SDS011;11809;56.390;-3.266;2023-09-19T14:27:08;32.20;;;2.88;;
23280;SDS011;11809;56.390;-3.266;2023-09-19T14:29:36;32.85;;;1.95;;
23280;SDS011;11809;56.390;-3.266;2023-09-19T14:32:03;94.35;;;6.50;;
23280;SDS011;11809;56.390;-3.266;2023-09-19T14:34:30;94.53;;;4.63;;
23280;SDS011;11809;56.390;-3.266;2023-09-19T14:36:58;87.30;;;4.97;;
23280;SDS011;11809;56.390;-3.266;2023-09-19T14:39:26;39.75;;;2.85;;
23280;SDS011;11809;56.390;-3.266;2023-09-19T14:41:54;47.83;;;2.75;;
23280;SDS011;11809;56.390;-3.266;2023-09-19T14:44:21;50.55;;;3.78;;
23280;SDS011;11809;56.390;-3.266;2023-09-19T14:46:48;38.17;;;2.67;;
23280;SDS011;11809;56.390;-3.266;2023-09-19T14:49:16;34.15;;;2.80;;
23280;SDS011;11809;56.390;-3.266;2023-09-19T14:51:43;27.98;;;2.13;;
23280;SDS011;11809;56.390;-3.266;2023-09-19T14:54:11;26.63;;;2.35;;
23280;SDS011;11809;56.390;-3.266;2023-09-19T14:56:38;20.92;;;2.42;;
23280;SDS011;11809;56.390;-3.266;2023-09-19T14:59:10;26.58;;;2.20;;
23280;SDS011;11809;56.390;-3.266;2023-09-19T15:01:38;17.98;;;2.20;;
23280;SDS011;11809;56.390;-3.266;2023-09-19T15:04:05;30.42;;;2.42;;
23280;SDS011;11809;56.390;-3.266;2023-09-19T15:06:33;18.67;;;2.17;;
23280;SDS011;11809;56.390;-3.266;2023-09-19T15:09:01;32.85;;;2.60;;
23280;SDS011;11809;56.390;-3.266;2023-09-19T15:11:28;36.55;;;3.00;;
23280;SDS011;11809;56.390;-3.266;2023-09-19T15:13:55;29.08;;;2.28;;
23280;SDS011;11809;56.390;-3.266;2023-09-19T15:16:23;23.15;;;2.20;;
23280;SDS011;11809;56.390;-3.266;2023-09-19T15:18:50;30.98;;;2.88;;
23280;SDS011;11809;56.390;-3.266;2023-09-19T15:21:18;57.28;;;4.10;;
23280;SDS011;11809;56.390;-3.266;2023-09-19T15:23:45;37.13;;;2.67;;
23280;SDS011;11809;56.390;-3.266;2023-09-19T15:26:13;34.63;;;2.67;;
23280;SDS011;11809;56.390;-3.266;2023-09-19T15:28:48;44.17;;;3.20;;
23280;SDS011;11809;56.390;-3.266;2023-09-19T15:31:16;36.95;;;2.85;;
23280;SDS011;11809;56.390;-3.266;2023-09-19T15:33:44;27.88;;;2.15;;
23280;SDS011;11809;56.390;-3.266;2023-09-19T15:36:12;24.65;;;2.80;;
23280;SDS011;11809;56.390;-3.266;2023-09-19T15:41:24;25.60;;;2.20;;
23280;SDS011;11809;56.390;-3.266;2023-09-19T15:43:51;22.08;;;2.10;;
23280;SDS011;11809;56.390;-3.266;2023-09-19T15:46:19;19.30;;;2.10;;
23280;SDS011;11809;56.390;-3.266;2023-09-19T15:48:47;14.60;;;2.15;;
23280;SDS011;11809;56.390;-3.266;2023-09-19T15:51:14;18.40;;;2.00;;
23280;SDS011;11809;56.390;-3.266;2023-09-19T15:53:43;10.35;;;1.60;;
23280;SDS011;11809;56.390;-3.266;2023-09-19T15:56:15;11.43;;;2.03;;
23280;SDS011;11809;56.390;-3.266;2023-09-19T15:58:48;12.77;;;1.67;;
23280;SDS011;11809;56.390;-3.266;2023-09-19T16:01:21;8.68;;;1.50;;